Lillington, North Carolina
Current Conditions -  °F | °C
As of 2:55 PM on Thursday 18 Dec 2014 (Local Time) from KHRJ Reporting Station
Overcast Overcast  
Wind Chill: 51°   Ceiling: 10000
Heat Index: 51°   Visibility: 10mi
Dew Point: 26°   Wind: 0mph
Humidity: 38%   Direction: NA
Pressure: 30.09"   Gusts: NA
Location:  35.4°N, 78.82°W
Report Text: KHRJ 181955Z AUTO 00000KT 10SM OVC100 11/M03 A3009 RMK AO2 T01051035
Loading
Personal Weather Stations






























Interactive Weather Map New forecast layout! Learn more

10-Day Weather Forecast

Advertisements
Track Severe Weather on mobile